Prudentia — PB4900 — position and weather

sailwx.info

Track history (hours):
 
Tides and Currents Weather Stations Pressure Air Temp Water Temp Dewpoint Dewpoint Depression Visibility Wind Speed Wind Dir Waves Ship Positions

Prudentia

Last reported at 2014-Dec-18 22:14 UTC. Time now 2014-Dec-19 14:24 UTC.
Position N 52°14' E 006°50'.

Length 70 m; draft 1.8 m.

Type: Ship. MMSI: 244660779.

Date/timePositionNaut miles runAvg speedWind from/ knotsBaromVisibWave heightAir tempDewpointWater temp
2014-Dec-18 22:14N 52°14' E 006°50'2 2.2
2014-Dec-18 21:33N 52°15' E 006°48'0 0.2
2014-Dec-18 20:33N 52°15' E 006°48'0 0.0
2014-Dec-18 19:33N 52°15' E 006°48'2 2.0
2014-Dec-18 18:33N 52°15' E 006°45'10 3.9
2014-Dec-18 16:06N 52°12' E 006°30'3 5.9
2014-Dec-18 15:33N 52°10' E 006°25'5 5.4
2014-Dec-18 14:33N 52°10' E 006°17'17 4.4
2014-Dec-18 10:33N 51°58' E 005°56'5 4.7
2014-Dec-18 09:33N 51°58' E 005°48'4 3.5
2014-Dec-18 08:31N 51°58' E 005°42'5 5.0
2014-Dec-18 07:33N 51°57' E 005°35'6 5.7
2014-Dec-18 06:33N 51°59' E 005°26'2 2.1
2014-Dec-18 05:34N 51°58' E 005°23'3 3.0
2014-Dec-18 04:34N 51°58' E 005°18'0 0.0
2014-Dec-18 03:34N 51°58' E 005°18'0 0.0
2014-Dec-18 02:34N 51°58' E 005°18'0 0.0
2014-Dec-18 01:34N 51°58' E 005°18'0 0.0
2014-Dec-18 00:34N 51°58' E 005°18'0 0.0
2014-Dec-17 23:34N 51°58' E 005°18'0 0.0
2014-Dec-17 22:34N 51°58' E 005°18'0 0.0
2014-Dec-17 21:34N 51°58' E 005°18'6 5.6
2014-Dec-17 20:34N 52°01' E 005°10'7 6.8
2014-Dec-17 19:33N 52°07' E 005°05'6 6.4
2014-Dec-17 18:33N 52°13' E 005°00'7 6.9
2014-Dec-17 17:34N 52°19' E 005°01'6 6.1
2014-Dec-17 16:34N 52°23' E 004°54'1 1.1
2014-Dec-17 15:33N 52°24' E 004°52'0 0.0
2014-Dec-17 14:33N 52°24' E 004°52'0 0.0
2014-Dec-17 13:33N 52°24' E 004°52'0 0.2
2014-Dec-17 12:34N 52°24' E 004°52'0 0.0
2014-Dec-17 11:34N 52°24' E 004°52'0 0.0
2014-Dec-17 10:33N 52°24' E 004°52'0 0.0
2014-Dec-17 09:34N 52°24' E 004°52'0 0.0
2014-Dec-17 08:34N 52°24' E 004°52'0 0.0
2014-Dec-17 07:34N 52°24' E 004°52'0 0.0
2014-Dec-17 06:34N 52°24' E 004°52'0 0.0
2014-Dec-17 05:34N 52°24' E 004°52'0 0.0
2014-Dec-17 04:33N 52°24' E 004°52'0 0.0
2014-Dec-17 03:34N 52°24' E 004°52'0 0.0
2014-Dec-17 02:33N 52°24' E 004°52'0 0.0
2014-Dec-17 01:34N 52°24' E 004°52'0 0.0
2014-Dec-17 00:33N 52°24' E 004°52'0 0.0
2014-Dec-16 23:34N 52°24' E 004°52'0 0.0
2014-Dec-16 22:33N 52°24' E 004°52'0 0.0
2014-Dec-16 21:33N 52°24' E 004°52'0 0.0
2014-Dec-16 20:33N 52°24' E 004°52'0 0.0
2014-Dec-16 19:34N 52°24' E 004°52'0 0.0
2014-Dec-16 18:33N 52°24' E 004°52'0 0.0
2014-Dec-16 17:34N 52°24' E 004°52'0 0.0
2014-Dec-16 16:34N 52°24' E 004°52'0 0.0
2014-Dec-16 15:34N 52°24' E 004°52'0 0.0
2014-Dec-16 14:34N 52°24' E 004°52'0 0.0
2014-Dec-16 13:33N 52°24' E 004°52'0 0.0
2014-Dec-16 12:33N 52°24' E 004°52'0 0.0
2014-Dec-16 11:33N 52°24' E 004°52'0 0.0
2014-Dec-16 10:33N 52°24' E 004°52'0 0.0
2014-Dec-16 09:34N 52°24' E 004°52'6 5.7
2014-Dec-16 08:33N 52°21' E 004°60'8 7.7
2014-Dec-16 07:33N 52°13' E 005°00'7 7.3
2014-Dec-16 06:33N 52°06' E 005°05'7 7.4
2014-Dec-16 05:33N 52°00' E 005°12'5 4.7
2014-Dec-16 04:33N 51°58' E 005°19'0 0.0
2014-Dec-16 03:32N 51°58' E 005°19'0 0.0
2014-Dec-16 02:33N 51°58' E 005°19'0 0.0
2014-Dec-16 01:33N 51°58' E 005°19'0 0.0
2014-Dec-16 00:33N 51°58' E 005°19'0 0.0
2014-Dec-15 23:33N 51°58' E 005°19'0 0.0
2014-Dec-15 22:33N 51°58' E 005°19'0 0.0
2014-Dec-15 21:33N 51°58' E 005°19'0 0.0
2014-Dec-15 20:33N 51°58' E 005°19'0 0.0
2014-Dec-15 19:33N 51°58' E 005°19'0 0.0
2014-Dec-15 18:33N 51°58' E 005°19'0 0.0
2014-Dec-15 17:33N 51°58' E 005°19'0 0.0
2014-Dec-15 16:33N 51°58' E 005°19'0 0.0
2014-Dec-15 15:34N 51°58' E 005°19'0 0.0
2014-Dec-15 14:33N 51°58' E 005°19'4 3.7
2014-Dec-15 13:34N 51°56' E 005°24'6 5.6
2014-Dec-15 12:33N 51°54' E 005°32'10 9.5
2014-Dec-15 11:33N 51°53' E 005°47'3 2.9
2014-Dec-15 10:33N 51°51' E 005°51'0 0.0
2014-Dec-15 09:33N 51°51' E 005°51'0 0.0
2014-Dec-15 08:32N 51°51' E 005°51'0 0.0
2014-Dec-15 07:33N 51°51' E 005°51'0 0.0
2014-Dec-15 06:33N 51°51' E 005°51'0 0.0
2014-Dec-15 05:33N 51°51' E 005°51'0 0.0
2014-Dec-15 01:29N 51°51' E 005°51'0 0.0
2014-Dec-13 15:23N 51°51' E 005°51'0 0.0
2014-Dec-13 14:24N 51°51' E 005°51'0 0.0
2014-Dec-13 13:33N 51°51' E 005°51'0 0.0
2014-Dec-13 12:32N 51°51' E 005°51'0 0.0
2014-Dec-13 11:29N 51°51' E 005°51'0 0.0
2014-Dec-13 10:33N 51°51' E 005°51'0 0.0
2014-Dec-13 09:34N 51°51' E 005°51'0 0.0
2014-Dec-13 08:33N 51°51' E 005°51'0 0.0
2014-Dec-13 07:34N 51°51' E 005°51'0 0.0
2014-Dec-13 06:27N 51°51' E 005°51'0 0.0
2014-Dec-13 05:29N 51°51' E 005°51'0 0.0
2014-Dec-13 04:30N 51°51' E 005°51'0 0.0
2014-Dec-13 03:31N 51°51' E 005°51'0 0.0
2014-Dec-13 02:27N 51°51' E 005°51'0 0.0
2014-Dec-13 01:14N 51°51' E 005°51'0 0.0
2014-Dec-13 00:18N 51°51' E 005°51'0 0.0
2014-Dec-12 23:11N 51°51' E 005°51'0 0.0
2014-Dec-12 22:19N 51°51' E 005°51'0 0.0
2014-Dec-12 20:05N 51°51' E 005°51'0 0.0
2014-Dec-12 18:16N 51°51' E 005°51'0 0.0
2014-Dec-12 17:04N 51°51' E 005°51'0 0.0
2014-Dec-12 16:32N 51°51' E 005°51'0 0.0
2014-Dec-12 15:32N 51°51' E 005°51'0 0.0
2014-Dec-12 14:34N 51°51' E 005°51'0 0.0
2014-Dec-12 13:33N 51°51' E 005°51'0 0.0
2014-Dec-12 12:34N 51°51' E 005°51'0 0.0
2014-Dec-12 11:34N 51°51' E 005°51'0 0.0
2014-Dec-12 10:34N 51°51' E 005°51'0 0.0
2014-Dec-12 09:32N 51°51' E 005°51'0 0.1
2014-Dec-12 08:29N 51°51' E 005°51'0 0.0
2014-Dec-12 07:31N 51°51' E 005°51'0 0.0
2014-Dec-12 06:33N 51°51' E 005°51'0 0.0
2014-Dec-12 05:30N 51°51' E 005°51'0 0.0
2014-Dec-12 04:25N 51°51' E 005°51'0 0.0
2014-Dec-12 03:33N 51°51' E 005°51'0 0.0
2014-Dec-12 02:32N 51°51' E 005°51'0 0.0
2014-Dec-12 01:33N 51°51' E 005°51'0 0.0
2014-Dec-12 00:29N 51°51' E 005°51'0 0.0
2014-Dec-11 23:32N 51°51' E 005°51'0 0.0
2014-Dec-11 22:30N 51°51' E 005°51'0 0.0
2014-Dec-11 21:32N 51°51' E 005°51'0 0.0
2014-Dec-11 20:33N 51°51' E 005°51'0 0.0
2014-Dec-11 19:26N 51°51' E 005°51'0 0.0
2014-Dec-11 13:19N 51°51' E 005°51'0 0.0
2014-Dec-11 09:32N 51°51' E 005°51'56 7.9
2014-Dec-11 02:27N 51°53' E 004°21'5654.2
2014-Dec-11 01:26N 51°51' E 005°51'0 0.0
2014-Dec-11 00:13N 51°51' E 005°51'0 0.0
2014-Dec-10 22:22N 51°51' E 005°51'0 0.0
2014-Dec-10 21:25N 51°51' E 005°51'0 0.0
2014-Dec-10 20:34N 51°51' E 005°51'0 0.0
2014-Dec-10 19:33N 51°51' E 005°51'0 0.0
2014-Dec-10 18:28N 51°51' E 005°51'0 0.0
2014-Dec-10 17:23N 51°51' E 005°51'0 0.0
2014-Dec-10 04:21N 51°51' E 005°51'  
Track history (hours):
 
Tides and Currents Weather Stations Pressure Air Temp Water Temp Dewpoint Dewpoint Depression Visibility Wind Speed Wind Dir Waves Ship Positions

Prudentia

Last reported at 2014-Dec-18 22:14 UTC. Time now 2014-Dec-19 14:24 UTC.
Position N 52°14' E 006°50'.

Length 70 m; draft 1.8 m.

Type: Ship. MMSI: 244660779.

Date/timePositionNaut miles runAvg speedWind from/ knotsBaromVisibWave heightAir tempDewpointWater temp
2014-Dec-18 22:14N 52°14' E 006°50'2 2.2
2014-Dec-18 21:33N 52°15' E 006°48'0 0.2
2014-Dec-18 20:33N 52°15' E 006°48'0 0.0
2014-Dec-18 19:33N 52°15' E 006°48'2 2.0
2014-Dec-18 18:33N 52°15' E 006°45'10 3.9
2014-Dec-18 16:06N 52°12' E 006°30'3 5.9
2014-Dec-18 15:33N 52°10' E 006°25'5 5.4
2014-Dec-18 14:33N 52°10' E 006°17'17 4.4
2014-Dec-18 10:33N 51°58' E 005°56'5 4.7
2014-Dec-18 09:33N 51°58' E 005°48'4 3.5
2014-Dec-18 08:31N 51°58' E 005°42'5 5.0
2014-Dec-18 07:33N 51°57' E 005°35'6 5.7
2014-Dec-18 06:33N 51°59' E 005°26'2 2.1
2014-Dec-18 05:34N 51°58' E 005°23'3 3.0
2014-Dec-18 04:34N 51°58' E 005°18'0 0.0
2014-Dec-18 03:34N 51°58' E 005°18'0 0.0
2014-Dec-18 02:34N 51°58' E 005°18'0 0.0
2014-Dec-18 01:34N 51°58' E 005°18'0 0.0
2014-Dec-18 00:34N 51°58' E 005°18'0 0.0
2014-Dec-17 23:34N 51°58' E 005°18'0 0.0
2014-Dec-17 22:34N 51°58' E 005°18'0 0.0
2014-Dec-17 21:34N 51°58' E 005°18'6 5.6
2014-Dec-17 20:34N 52°01' E 005°10'7 6.8
2014-Dec-17 19:33N 52°07' E 005°05'6 6.4
2014-Dec-17 18:33N 52°13' E 005°00'7 6.9
2014-Dec-17 17:34N 52°19' E 005°01'6 6.1
2014-Dec-17 16:34N 52°23' E 004°54'1 1.1
2014-Dec-17 15:33N 52°24' E 004°52'0 0.0
2014-Dec-17 14:33N 52°24' E 004°52'0 0.0
2014-Dec-17 13:33N 52°24' E 004°52'0 0.2
2014-Dec-17 12:34N 52°24' E 004°52'0 0.0
2014-Dec-17 11:34N 52°24' E 004°52'0 0.0
2014-Dec-17 10:33N 52°24' E 004°52'0 0.0
2014-Dec-17 09:34N 52°24' E 004°52'0 0.0
2014-Dec-17 08:34N 52°24' E 004°52'0 0.0
2014-Dec-17 07:34N 52°24' E 004°52'0 0.0
2014-Dec-17 06:34N 52°24' E 004°52'0 0.0
2014-Dec-17 05:34N 52°24' E 004°52'0 0.0
2014-Dec-17 04:33N 52°24' E 004°52'0 0.0
2014-Dec-17 03:34N 52°24' E 004°52'0 0.0
2014-Dec-17 02:33N 52°24' E 004°52'0 0.0
2014-Dec-17 01:34N 52°24' E 004°52'0 0.0
2014-Dec-17 00:33N 52°24' E 004°52'0 0.0
2014-Dec-16 23:34N 52°24' E 004°52'0 0.0
2014-Dec-16 22:33N 52°24' E 004°52'0 0.0
2014-Dec-16 21:33N 52°24' E 004°52'0 0.0
2014-Dec-16 20:33N 52°24' E 004°52'0 0.0
2014-Dec-16 19:34N 52°24' E 004°52'0 0.0
2014-Dec-16 18:33N 52°24' E 004°52'0 0.0
2014-Dec-16 17:34N 52°24' E 004°52'0 0.0
2014-Dec-16 16:34N 52°24' E 004°52'0 0.0
2014-Dec-16 15:34N 52°24' E 004°52'0 0.0
2014-Dec-16 14:34N 52°24' E 004°52'0 0.0
2014-Dec-16 13:33N 52°24' E 004°52'0 0.0
2014-Dec-16 12:33N 52°24' E 004°52'0 0.0
2014-Dec-16 11:33N 52°24' E 004°52'0 0.0
2014-Dec-16 10:33N 52°24' E 004°52'0 0.0
2014-Dec-16 09:34N 52°24' E 004°52'6 5.7
2014-Dec-16 08:33N 52°21' E 004°60'8 7.7
2014-Dec-16 07:33N 52°13' E 005°00'7 7.3
2014-Dec-16 06:33N 52°06' E 005°05'7 7.4
2014-Dec-16 05:33N 52°00' E 005°12'5 4.7
2014-Dec-16 04:33N 51°58' E 005°19'0 0.0
2014-Dec-16 03:32N 51°58' E 005°19'0 0.0
2014-Dec-16 02:33N 51°58' E 005°19'0 0.0
2014-Dec-16 01:33N 51°58' E 005°19'0 0.0
2014-Dec-16 00:33N 51°58' E 005°19'0 0.0
2014-Dec-15 23:33N 51°58' E 005°19'0 0.0
2014-Dec-15 22:33N 51°58' E 005°19'0 0.0
2014-Dec-15 21:33N 51°58' E 005°19'0 0.0
2014-Dec-15 20:33N 51°58' E 005°19'0 0.0
2014-Dec-15 19:33N 51°58' E 005°19'0 0.0
2014-Dec-15 18:33N 51°58' E 005°19'0 0.0
2014-Dec-15 17:33N 51°58' E 005°19'0 0.0
2014-Dec-15 16:33N 51°58' E 005°19'0 0.0
2014-Dec-15 15:34N 51°58' E 005°19'0 0.0
2014-Dec-15 14:33N 51°58' E 005°19'4 3.7
2014-Dec-15 13:34N 51°56' E 005°24'6 5.6
2014-Dec-15 12:33N 51°54' E 005°32'10 9.5
2014-Dec-15 11:33N 51°53' E 005°47'3 2.9
2014-Dec-15 10:33N 51°51' E 005°51'0 0.0
2014-Dec-15 09:33N 51°51' E 005°51'0 0.0
2014-Dec-15 08:32N 51°51' E 005°51'0 0.0
2014-Dec-15 07:33N 51°51' E 005°51'0 0.0
2014-Dec-15 06:33N 51°51' E 005°51'0 0.0
2014-Dec-15 05:33N 51°51' E 005°51'0 0.0
2014-Dec-15 01:29N 51°51' E 005°51'0 0.0
2014-Dec-13 15:23N 51°51' E 005°51'0 0.0
2014-Dec-13 14:24N 51°51' E 005°51'0 0.0
2014-Dec-13 13:33N 51°51' E 005°51'0 0.0
2014-Dec-13 12:32N 51°51' E 005°51'0 0.0
2014-Dec-13 11:29N 51°51' E 005°51'0 0.0
2014-Dec-13 10:33N 51°51' E 005°51'0 0.0
2014-Dec-13 09:34N 51°51' E 005°51'0 0.0
2014-Dec-13 08:33N 51°51' E 005°51'0 0.0
2014-Dec-13 07:34N 51°51' E 005°51'0 0.0
2014-Dec-13 06:27N 51°51' E 005°51'0 0.0
2014-Dec-13 05:29N 51°51' E 005°51'0 0.0
2014-Dec-13 04:30N 51°51' E 005°51'0 0.0
2014-Dec-13 03:31N 51°51' E 005°51'0 0.0
2014-Dec-13 02:27N 51°51' E 005°51'0 0.0
2014-Dec-13 01:14N 51°51' E 005°51'0 0.0
2014-Dec-13 00:18N 51°51' E 005°51'0 0.0
2014-Dec-12 23:11N 51°51' E 005°51'0 0.0
2014-Dec-12 22:19N 51°51' E 005°51'0 0.0
2014-Dec-12 20:05N 51°51' E 005°51'0 0.0
2014-Dec-12 18:16N 51°51' E 005°51'0 0.0
2014-Dec-12 17:04N 51°51' E 005°51'0 0.0
2014-Dec-12 16:32N 51°51' E 005°51'0 0.0
2014-Dec-12 15:32N 51°51' E 005°51'0 0.0
2014-Dec-12 14:34N 51°51' E 005°51'0 0.0
2014-Dec-12 13:33N 51°51' E 005°51'0 0.0
2014-Dec-12 12:34N 51°51' E 005°51'0 0.0
2014-Dec-12 11:34N 51°51' E 005°51'0 0.0
2014-Dec-12 10:34N 51°51' E 005°51'0 0.0
2014-Dec-12 09:32N 51°51' E 005°51'0 0.1
2014-Dec-12 08:29N 51°51' E 005°51'0 0.0
2014-Dec-12 07:31N 51°51' E 005°51'0 0.0
2014-Dec-12 06:33N 51°51' E 005°51'0 0.0
2014-Dec-12 05:30N 51°51' E 005°51'0 0.0
2014-Dec-12 04:25N 51°51' E 005°51'0 0.0
2014-Dec-12 03:33N 51°51' E 005°51'0 0.0
2014-Dec-12 02:32N 51°51' E 005°51'0 0.0
2014-Dec-12 01:33N 51°51' E 005°51'0 0.0
2014-Dec-12 00:29N 51°51' E 005°51'0 0.0
2014-Dec-11 23:32N 51°51' E 005°51'0 0.0
2014-Dec-11 22:30N 51°51' E 005°51'0 0.0
2014-Dec-11 21:32N 51°51' E 005°51'0 0.0
2014-Dec-11 20:33N 51°51' E 005°51'0 0.0
2014-Dec-11 19:26N 51°51' E 005°51'0 0.0
2014-Dec-11 13:19N 51°51' E 005°51'0 0.0
2014-Dec-11 09:32N 51°51' E 005°51'56 7.9
2014-Dec-11 02:27N 51°53' E 004°21'5654.2
2014-Dec-11 01:26N 51°51' E 005°51'0 0.0
2014-Dec-11 00:13N 51°51' E 005°51'0 0.0
2014-Dec-10 22:22N 51°51' E 005°51'0 0.0
2014-Dec-10 21:25N 51°51' E 005°51'0 0.0
2014-Dec-10 20:34N 51°51' E 005°51'0 0.0
2014-Dec-10 19:33N 51°51' E 005°51'0 0.0
2014-Dec-10 18:28N 51°51' E 005°51'0 0.0
2014-Dec-10 17:23N 51°51' E 005°51'0 0.0
2014-Dec-10 04:21N 51°51' E 005°51'  

Dump ship's entire track history